createdAt,value
2019-04-26T00:00:35.425Z,19.10
2019-04-26T00:03:07.773Z,18.45
2019-04-26T00:05:38.565Z,19.05
2019-04-26T00:08:09.295Z,19.50
2019-04-26T00:10:47.885Z,19.15
2019-04-26T00:13:22.531Z,17.20
2019-04-26T00:15:54.072Z,18.70
2019-04-26T00:18:23.740Z,18.70
2019-04-26T00:20:53.371Z,17.98
2019-04-26T00:23:23.401Z,17.70
2019-04-26T00:25:53.180Z,17.80
2019-04-26T00:28:22.847Z,17.85
2019-04-26T00:30:52.504Z,18.27
2019-04-26T00:33:22.168Z,18.42
2019-04-26T00:35:51.802Z,19.15
2019-04-26T00:38:22.411Z,19.95
2019-04-26T00:40:52.804Z,18.32
2019-04-26T00:43:23.602Z,18.85
2019-04-26T00:45:53.312Z,18.82
2019-04-26T00:48:25.772Z,17.85
2019-04-26T00:50:56.658Z,16.25
2019-04-26T00:53:29.319Z,16.48
2019-04-26T00:55:59.987Z,16.50
2019-04-26T00:58:33.474Z,16.57
2019-04-26T01:01:02.656Z,17.07
2019-04-26T01:03:32.309Z,17.42
2019-04-26T01:06:03.573Z,17.62
2019-04-26T01:08:33.541Z,18.92
2019-04-26T01:11:03.169Z,18.62
2019-04-26T01:13:32.841Z,19.27
2019-04-26T01:16:02.579Z,17.67
2019-04-26T01:18:32.684Z,18.20
2019-04-26T01:21:04.649Z,17.10
2019-04-26T01:23:37.615Z,17.35
2019-04-26T01:26:13.347Z,17.80
2019-04-26T01:28:52.203Z,19.92
2019-04-26T01:31:21.990Z,18.57
2019-04-26T01:33:52.519Z,18.15
2019-04-26T01:36:24.328Z,17.77
2019-04-26T01:38:57.138Z,16.93
2019-04-26T01:41:49.157Z,18.57
2019-04-26T01:44:25.277Z,16.40
2019-04-26T01:46:56.212Z,18.25
2019-04-26T01:49:26.212Z,18.35
2019-04-26T01:52:10.562Z,18.77
2019-04-26T01:54:43.280Z,17.98
2019-04-26T01:57:13.555Z,16.80
2019-04-26T01:59:47.539Z,17.57
2019-04-26T02:02:25.670Z,17.57
2019-04-26T02:04:57.234Z,18.05
2019-04-26T02:07:39.438Z,18.25
2019-04-26T02:10:17.564Z,17.23
2019-04-26T02:12:49.420Z,16.70
2019-04-26T02:15:21.521Z,17.10
2019-04-26T02:17:53.838Z,17.05
2019-04-26T02:21:04.022Z,18.10
2019-04-26T02:23:38.204Z,17.77
2019-04-26T02:26:26.777Z,17.48
2019-04-26T02:28:56.452Z,16.67
2019-04-26T02:31:27.251Z,18.07
2019-04-26T02:33:58.627Z,18.17
2019-04-26T02:36:47.932Z,17.57
2019-04-26T02:39:04.701Z,18.48
2019-04-26T02:41:37.094Z,17.20
2019-04-26T02:44:09.862Z,17.35
2019-04-26T02:46:58.795Z,16.40
2019-04-26T02:49:38.422Z,16.95
2019-04-26T02:52:13.795Z,16.32
2019-04-26T02:55:08.518Z,17.15
2019-04-26T02:57:44.382Z,16.17
2019-04-26T03:00:16.504Z,16.95
2019-04-26T03:02:49.222Z,16.93
2019-04-26T03:05:20.371Z,17.15
2019-04-26T03:07:53.144Z,15.65
2019-04-26T03:10:25.821Z,17.73
2019-04-26T03:12:58.538Z,17.98
2019-04-26T03:15:37.022Z,15.90
2019-04-26T03:18:17.099Z,16.70
2019-04-26T03:20:49.780Z,17.10
2019-04-26T03:23:53.209Z,17.73
2019-04-26T03:26:43.323Z,16.67
2019-04-26T03:29:18.741Z,16.75
2019-04-26T03:32:16.102Z,16.77
2019-04-26T03:34:54.832Z,17.77
2019-04-26T03:37:48.045Z,19.90
2019-04-26T03:40:41.055Z,17.90
2019-04-26T03:43:23.409Z,16.55
2019-04-26T03:46:01.969Z,16.17
2019-04-26T03:48:39.292Z,16.42
2019-04-26T03:51:26.101Z,17.52
2019-04-26T03:54:04.582Z,18.40
2019-04-26T03:56:40.442Z,17.77
2019-04-26T03:59:20.884Z,18.17
2019-04-26T04:01:57.892Z,17.05
2019-04-26T04:04:36.966Z,18.65
2019-04-26T04:07:09.234Z,18.48
2019-04-26T04:09:42.869Z,17.62
2019-04-26T04:12:15.687Z,26.70
2019-04-26T04:15:00.102Z,18.67
2019-04-26T04:17:45.665Z,18.87
2019-04-26T04:20:33.980Z,18.92
2019-04-26T04:23:24.423Z,20.57
2019-04-26T04:25:57.113Z,20.80
2019-04-26T04:28:49.778Z,21.82
2019-04-26T04:31:39.911Z,19.90
2019-04-26T04:34:15.721Z,24.05
2019-04-26T04:36:51.305Z,18.98
2019-04-26T04:39:23.114Z,18.75
2019-04-26T04:42:27.236Z,18.70
2019-04-26T04:45:07.276Z,19.25
2019-04-26T04:47:56.282Z,27.95
2019-04-26T04:50:36.085Z,18.77
2019-04-26T04:53:17.471Z,19.40
2019-04-26T04:56:16.944Z,18.10
2019-04-26T04:58:52.547Z,18.77
2019-04-26T05:01:48.328Z,17.00
2019-04-26T05:04:29.809Z,39.65
2019-04-26T05:07:09.660Z,17.85
2019-04-26T05:09:49.470Z,16.93
2019-04-26T05:15:23.168Z,33.75
2019-04-26T05:17:59.006Z,18.35
2019-04-26T05:20:37.874Z,16.42
2019-04-26T05:23:16.092Z,16.00
2019-04-26T05:26:09.659Z,14.98
2019-04-26T05:29:09.486Z,16.02
2019-04-26T05:31:57.270Z,15.70
2019-04-26T05:34:34.516Z,14.23
2019-04-26T05:37:24.909Z,14.45
2019-04-26T05:40:03.262Z,15.30
2019-04-26T05:42:55.787Z,14.90
2019-04-26T05:45:47.010Z,14.40
2019-04-26T05:49:03.070Z,14.98
2019-04-26T05:52:13.732Z,16.17
2019-04-26T05:55:06.059Z,28.52
2019-04-26T05:57:56.320Z,21.07
2019-04-26T06:01:05.207Z,18.12
2019-04-26T06:04:16.095Z,15.55
2019-04-26T06:07:05.198Z,15.43
2019-04-26T06:09:42.496Z,15.45
2019-04-26T06:12:37.982Z,16.23
2019-04-26T06:15:12.343Z,14.28
2019-04-26T06:18:01.824Z,12.73
2019-04-26T06:20:46.511Z,12.80
2019-04-26T06:23:31.205Z,11.40
2019-04-26T06:26:29.510Z,11.88
2019-04-26T06:29:05.350Z,12.63
2019-04-26T06:31:50.044Z,10.90
2019-04-26T06:34:22.921Z,13.30
2019-04-26T06:37:09.355Z,10.25
2019-04-26T06:39:50.778Z,9.45
2019-04-26T06:42:58.281Z,10.32
2019-04-26T06:45:54.294Z,9.85
2019-04-26T06:48:39.166Z,9.48
2019-04-26T06:51:25.113Z,8.95
2019-04-26T06:54:10.009Z,8.75
2019-04-26T06:56:47.752Z,8.85
2019-04-26T06:59:41.281Z,8.83
2019-04-26T07:02:25.555Z,7.37
2019-04-26T07:05:16.052Z,7.05
2019-04-26T07:08:00.457Z,6.85
2019-04-26T07:10:44.038Z,6.58
2019-04-26T07:13:32.847Z,7.80
2019-04-26T07:16:19.648Z,6.50
2019-04-26T07:19:05.599Z,6.25
2019-04-26T07:22:35.634Z,5.00
2019-04-26T07:25:32.497Z,5.85
2019-04-26T07:28:12.339Z,5.97
2019-04-26T07:30:50.978Z,5.37
2019-04-26T07:33:39.779Z,4.72
2019-04-26T07:36:24.359Z,6.62
2019-04-26T07:39:13.706Z,5.17
2019-04-26T07:41:55.504Z,5.33
2019-04-26T07:44:46.910Z,5.35
2019-04-26T07:47:55.484Z,4.37
2019-04-26T07:50:37.002Z,4.25
2019-04-26T07:53:33.460Z,6.92
2019-04-26T07:56:07.099Z,4.15
2019-04-26T07:59:06.001Z,3.30
2019-04-26T08:01:52.506Z,3.95
2019-04-26T08:04:32.698Z,3.62
2019-04-26T08:07:08.575Z,4.10
2019-04-26T08:09:41.267Z,4.97
2019-04-26T08:12:14.177Z,3.95
2019-04-26T08:14:54.387Z,3.95
2019-04-26T08:17:28.692Z,3.10
2019-04-26T08:20:23.761Z,3.70
2019-04-26T08:22:56.465Z,3.42
2019-04-26T08:25:29.145Z,3.70
2019-04-26T08:28:01.222Z,3.47
2019-04-26T08:30:33.935Z,3.50
2019-04-26T08:33:07.571Z,3.22
2019-04-26T08:35:39.570Z,4.55
2019-04-26T08:38:15.942Z,4.85
2019-04-26T08:40:43.044Z,3.42
2019-04-26T08:43:27.334Z,3.85
2019-04-26T08:46:15.129Z,4.00
2019-04-26T08:49:06.439Z,3.85
2019-04-26T08:51:39.239Z,3.80
2019-04-26T08:54:11.807Z,2.80
2019-04-26T08:56:47.005Z,2.75
2019-04-26T08:59:22.403Z,3.30
2019-04-26T09:01:55.832Z,3.47
2019-04-26T09:04:28.898Z,3.58
2019-04-26T09:07:03.252Z,3.90
2019-04-26T09:09:35.617Z,3.37
2019-04-26T09:12:22.877Z,3.50
2019-04-26T09:14:48.793Z,5.30
2019-04-26T09:17:18.623Z,3.00
2019-04-26T09:19:48.292Z,3.37
2019-04-26T09:22:26.377Z,3.33
2019-04-26T09:24:59.399Z,3.45
2019-04-26T09:27:31.409Z,3.50
2019-04-26T09:30:06.368Z,3.15
2019-04-26T09:32:40.697Z,3.58
2019-04-26T09:35:11.272Z,3.22
2019-04-26T09:37:41.944Z,4.05
2019-04-26T09:40:21.004Z,5.58
2019-04-26T09:42:48.276Z,4.05
2019-04-26T09:45:35.942Z,2.92
2019-04-26T09:48:07.233Z,3.50
2019-04-26T09:50:38.529Z,3.80
2019-04-26T09:53:08.763Z,3.35
2019-04-26T09:55:38.432Z,3.45
2019-04-26T09:58:08.727Z,11.85
2019-04-26T10:00:39.486Z,22.48
2019-04-26T10:03:10.656Z,3.05
2019-04-26T10:05:40.424Z,3.77
2019-04-26T10:08:12.997Z,3.62
2019-04-26T10:10:41.405Z,3.15
2019-04-26T10:13:30.583Z,4.22
2019-04-26T10:16:04.549Z,8.50
2019-04-26T10:18:34.388Z,3.37
2019-04-26T10:21:04.208Z,3.58
2019-04-26T10:23:33.893Z,3.20
2019-04-26T10:26:03.590Z,3.37
2019-04-26T10:28:33.268Z,3.40
2019-04-26T10:31:03.008Z,4.35
2019-04-26T10:33:36.541Z,3.90
2019-04-26T10:36:04.721Z,3.75
2019-04-26T10:38:34.403Z,3.27
2019-04-26T10:41:04.170Z,3.02
2019-04-26T10:43:33.841Z,2.95
2019-04-26T10:46:04.746Z,3.67
2019-04-26T10:48:34.408Z,3.10
2019-04-26T10:51:07.383Z,3.27
2019-04-26T10:53:52.237Z,3.15
2019-04-26T10:56:38.302Z,3.70
2019-04-26T10:59:10.780Z,2.65
2019-04-26T11:01:40.677Z,3.45
2019-04-26T11:04:10.364Z,3.42
2019-04-26T11:06:39.990Z,2.72
2019-04-26T11:09:09.917Z,2.83
2019-04-26T11:11:40.403Z,3.15
2019-04-26T11:14:10.082Z,2.92
2019-04-26T11:16:41.276Z,3.37
2019-04-26T11:19:11.087Z,2.55
2019-04-26T11:21:40.766Z,3.35
2019-04-26T11:24:10.402Z,2.75
2019-04-26T11:26:40.074Z,2.30
2019-04-26T11:29:09.706Z,3.67
2019-04-26T11:31:39.379Z,3.10
2019-04-26T11:34:09.060Z,2.80
2019-04-26T11:36:41.677Z,2.17
2019-04-26T11:39:11.451Z,3.10
2019-04-26T11:41:41.168Z,3.00
2019-04-26T11:44:10.799Z,2.75
2019-04-26T11:46:44.894Z,3.42
2019-04-26T11:49:11.798Z,2.98
2019-04-26T11:51:41.484Z,3.67
2019-04-26T11:54:11.118Z,3.65
2019-04-26T11:56:40.803Z,3.77
2019-04-26T11:59:10.439Z,3.10
2019-04-26T12:01:40.616Z,2.90
2019-04-26T12:04:16.016Z,2.77
2019-04-26T12:06:52.978Z,4.30
2019-04-26T12:09:27.356Z,3.30
2019-04-26T12:12:04.424Z,33.33
2019-04-26T12:14:29.582Z,72.35
2019-04-26T12:17:01.314Z,6.50
2019-04-26T12:19:30.966Z,108.15
2019-04-26T12:22:04.243Z,4.53
2019-04-26T12:24:34.385Z,3.65
2019-04-26T12:27:03.388Z,3.85
2019-04-26T12:29:33.035Z,2.40
2019-04-26T12:32:02.712Z,3.17
2019-04-26T12:34:32.320Z,3.27
2019-04-26T12:37:01.998Z,2.55
2019-04-26T12:39:32.315Z,2.67
2019-04-26T12:42:08.207Z,2.25
2019-04-26T12:44:41.171Z,3.58
2019-04-26T12:47:16.754Z,15.40
2019-04-26T12:49:46.497Z,5.62
2019-04-26T12:52:17.527Z,6.28
2019-04-26T12:54:47.486Z,3.72
2019-04-26T12:57:17.158Z,2.80
2019-04-26T12:59:46.815Z,4.20
2019-04-26T13:02:20.709Z,6.87
2019-04-26T13:04:48.432Z,9.25
2019-04-26T13:07:23.800Z,3.08
2019-04-26T13:10:08.863Z,3.10
2019-04-26T13:12:48.905Z,3.87
2019-04-26T13:15:50.376Z,7.75
2019-04-26T13:18:19.768Z,2.60
2019-04-26T13:20:49.391Z,2.05
2019-04-26T13:23:19.056Z,3.80
2019-04-26T13:25:48.672Z,2.17
2019-04-26T13:28:20.272Z,3.20
2019-04-26T13:30:49.763Z,6.75
2019-04-26T13:33:19.397Z,4.92
2019-04-26T13:36:02.243Z,3.95
2019-04-26T13:38:20.754Z,4.47
2019-04-26T13:40:51.083Z,2.60
2019-04-26T13:43:22.685Z,2.70
2019-04-26T13:45:53.694Z,1.95
2019-04-26T13:48:43.541Z,1.85
2019-04-26T13:51:31.089Z,2.37
2019-04-26T13:54:00.711Z,2.50
2019-04-26T13:56:32.132Z,2.47
2019-04-26T13:59:01.686Z,2.80
2019-04-26T14:01:31.332Z,2.67
2019-04-26T14:04:02.431Z,2.17
2019-04-26T14:06:32.293Z,2.17
2019-04-26T14:09:03.014Z,2.55
2019-04-26T14:11:32.764Z,3.02
2019-04-26T14:14:02.378Z,2.90
2019-04-26T14:16:32.031Z,2.15
2019-04-26T14:19:01.673Z,2.20
2019-04-26T14:21:33.168Z,2.72
2019-04-26T14:24:07.177Z,2.35
2019-04-26T14:26:39.897Z,6.22
2019-04-26T14:29:09.792Z,2.17
2019-04-26T14:31:39.451Z,2.42
2019-04-26T14:34:11.936Z,2.27
2019-04-26T14:36:40.461Z,7.33
2019-04-26T14:39:10.546Z,2.92
2019-04-26T14:41:41.490Z,2.47
2019-04-26T14:44:15.745Z,2.75
2019-04-26T14:46:48.840Z,2.50
2019-04-26T14:49:15.251Z,4.12
2019-04-26T14:51:47.010Z,2.40
2019-04-26T14:54:16.505Z,3.42
2019-04-26T14:56:52.223Z,2.67
2019-04-26T14:59:19.129Z,2.40
2019-04-26T15:01:52.187Z,2.20
2019-04-26T15:04:28.083Z,2.37
2019-04-26T15:06:59.624Z,2.30
2019-04-26T15:09:33.129Z,2.75
2019-04-26T15:12:03.001Z,2.30
2019-04-26T15:14:33.293Z,2.98
2019-04-26T15:17:02.928Z,2.15
2019-04-26T15:19:35.030Z,2.30
2019-04-26T15:22:10.558Z,2.20
2019-04-26T15:24:38.633Z,2.62
2019-04-26T15:27:06.833Z,2.85
2019-04-26T15:29:36.487Z,3.15
2019-04-26T15:32:06.113Z,3.02
2019-04-26T15:34:36.701Z,2.10
2019-04-26T15:37:06.414Z,2.42
2019-04-26T15:39:37.702Z,2.58
2019-04-26T15:42:17.746Z,2.98
2019-04-26T15:44:49.625Z,28.10
2019-04-26T15:47:34.330Z,2.83
2019-04-26T15:50:10.911Z,3.10
2019-04-26T15:52:42.332Z,2.25
2019-04-26T15:55:13.342Z,2.35
2019-04-26T15:57:43.345Z,6.47
2019-04-26T16:00:13.166Z,2.62
2019-04-26T16:02:42.848Z,24.77
2019-04-26T16:05:12.501Z,5.25
2019-04-26T16:07:43.008Z,2.17
2019-04-26T16:10:12.894Z,2.42
2019-04-26T16:12:42.521Z,2.55
2019-04-26T16:15:14.645Z,2.62
2019-04-26T16:17:43.569Z,3.70
2019-04-26T16:20:13.607Z,2.12
2019-04-26T16:22:43.666Z,3.17
2019-04-26T16:25:13.461Z,2.50
2019-04-26T16:27:43.200Z,11.60
2019-04-26T16:30:15.769Z,4.15
2019-04-26T16:33:00.033Z,3.00
2019-04-26T16:35:29.704Z,2.85
2019-04-26T16:38:02.625Z,2.65
2019-04-26T16:40:32.612Z,3.50
2019-04-26T16:43:04.221Z,3.47
2019-04-26T16:45:37.241Z,2.70
2019-04-26T16:48:04.945Z,2.37
2019-04-26T16:50:44.022Z,3.22
2019-04-26T16:53:05.996Z,2.90
2019-04-26T16:55:48.007Z,3.10
2019-04-26T16:58:06.993Z,2.85
2019-04-26T17:00:50.139Z,2.62
2019-04-26T17:03:08.325Z,2.80
2019-04-26T17:05:47.741Z,3.08
2019-04-26T17:08:10.499Z,3.27
2019-04-26T17:10:41.705Z,3.98
2019-04-26T17:13:13.254Z,3.12
2019-04-26T17:15:42.994Z,2.75
2019-04-26T17:18:12.803Z,3.30
2019-04-26T17:20:44.936Z,3.98
2019-04-26T17:23:15.861Z,4.40
2019-04-26T17:26:02.077Z,4.90
2019-04-26T17:28:33.483Z,4.67
2019-04-26T17:31:03.128Z,5.42
2019-04-26T17:33:34.147Z,4.70
2019-04-26T17:36:04.187Z,5.80
2019-04-26T17:38:35.206Z,4.47
2019-04-26T17:41:06.492Z,4.95
2019-04-26T17:43:40.790Z,4.10
2019-04-26T17:46:08.394Z,6.00
2019-04-26T17:48:38.043Z,11.38
2019-04-26T17:51:12.129Z,15.63
2019-04-26T17:53:40.095Z,15.05
2019-04-26T17:56:11.084Z,10.43
2019-04-26T17:58:51.247Z,11.00
2019-04-26T18:01:33.325Z,10.63
2019-04-26T18:03:50.870Z,9.65
2019-04-26T18:06:15.592Z,15.53
2019-04-26T18:08:52.310Z,13.15
2019-04-26T18:11:19.939Z,16.00
2019-04-26T18:13:51.151Z,14.85
2019-04-26T18:16:21.993Z,18.20
2019-04-26T18:18:56.187Z,19.40
2019-04-26T18:21:45.366Z,17.35
2019-04-26T18:24:15.705Z,16.40
2019-04-26T18:26:45.354Z,19.15
2019-04-26T18:29:15.026Z,20.88
2019-04-26T18:31:44.835Z,32.25
2019-04-26T18:34:14.503Z,32.38
2019-04-26T18:36:44.406Z,26.93
2019-04-26T18:39:14.457Z,20.10
2019-04-26T18:41:44.089Z,17.15
2019-04-26T18:44:13.972Z,17.15
2019-04-26T18:46:47.895Z,20.97
2019-04-26T18:49:22.668Z,21.82
2019-04-26T18:51:50.103Z,26.02
2019-04-26T18:54:21.485Z,35.48
2019-04-26T18:56:53.351Z,35.10
2019-04-26T18:59:23.454Z,35.73
2019-04-26T19:01:54.047Z,32.98
2019-04-26T19:04:23.793Z,32.40
2019-04-26T19:06:53.445Z,34.63
2019-04-26T19:09:24.714Z,33.35
2019-04-26T19:11:56.232Z,36.33
2019-04-26T19:14:49.120Z,39.53
2019-04-26T19:17:16.145Z,37.00
2019-04-26T19:19:47.447Z,43.60
2019-04-26T19:22:20.185Z,36.60
2019-04-26T19:24:49.515Z,33.98
2019-04-26T19:27:22.614Z,35.58
2019-04-26T19:29:51.822Z,35.13
2019-04-26T19:32:23.469Z,33.88
2019-04-26T19:34:52.892Z,35.65
2019-04-26T19:37:23.387Z,32.15
2019-04-26T19:39:53.066Z,27.70
2019-04-26T19:42:22.725Z,22.67
2019-04-26T19:45:09.501Z,25.05
2019-04-26T19:47:35.492Z,26.97
2019-04-26T19:50:14.216Z,22.70
2019-04-26T19:52:46.047Z,19.17
2019-04-26T19:55:32.448Z,18.30
2019-04-26T19:58:09.651Z,19.95
2019-04-26T20:00:38.490Z,24.10
2019-04-26T20:03:13.391Z,22.00
2019-04-26T20:05:44.010Z,20.23
2019-04-26T20:08:12.179Z,19.98
2019-04-26T20:10:45.502Z,20.45
2019-04-26T20:13:16.209Z,20.55
2019-04-26T20:15:44.614Z,19.98
2019-04-26T20:18:17.354Z,18.90
2019-04-26T20:20:45.759Z,17.87
2019-04-26T20:23:15.960Z,19.17
2019-04-26T20:25:45.589Z,18.73
2019-04-26T20:28:15.965Z,17.98
2019-04-26T20:30:52.840Z,17.70
2019-04-26T20:33:22.536Z,17.50
2019-04-26T20:35:52.130Z,19.80
2019-04-26T20:38:21.800Z,18.17
2019-04-26T20:40:53.493Z,19.55
2019-04-26T20:43:26.561Z,18.80
2019-04-26T20:46:10.885Z,20.40
2019-04-26T20:48:30.070Z,18.92
2019-04-26T20:50:57.377Z,15.25
2019-04-26T20:53:30.403Z,16.90
2019-04-26T20:55:58.365Z,15.18
2019-04-26T20:58:28.087Z,14.18
2019-04-26T21:00:57.793Z,38.40
2019-04-26T21:03:28.029Z,21.55
2019-04-26T21:05:58.982Z,20.68
2019-04-26T21:08:29.034Z,13.48
2019-04-26T21:11:00.206Z,13.70
2019-04-26T21:13:31.078Z,12.10
2019-04-26T21:16:03.472Z,11.05
2019-04-26T21:18:39.595Z,12.15
2019-04-26T21:21:05.960Z,14.58
2019-04-26T21:23:39.842Z,16.25
2019-04-26T21:26:21.685Z,15.40
2019-04-26T21:28:55.859Z,15.70
2019-04-26T21:31:36.382Z,15.43
2019-04-26T21:34:12.003Z,15.38
2019-04-26T21:36:41.900Z,15.85
2019-04-26T21:39:19.768Z,16.57
2019-04-26T21:41:53.197Z,16.48
2019-04-26T21:44:22.880Z,15.48
2019-04-26T21:46:56.224Z,14.55
2019-04-26T21:49:24.349Z,7.92
2019-04-26T21:51:54.359Z,8.18
2019-04-26T21:54:25.215Z,8.40
2019-04-26T21:56:54.979Z,9.65
2019-04-26T21:59:24.675Z,8.68
2019-04-26T22:01:58.993Z,8.05
2019-04-26T22:04:28.854Z,7.55
2019-04-26T22:06:59.893Z,7.75
2019-04-26T22:09:36.821Z,7.70
2019-04-26T22:12:08.348Z,7.85
2019-04-26T22:14:39.672Z,7.60
2019-04-26T22:17:13.690Z,8.25
2019-04-26T22:19:44.924Z,8.00
2019-04-26T22:22:37.298Z,9.73
2019-04-26T22:25:06.701Z,8.68
2019-04-26T22:27:36.355Z,10.03
2019-04-26T22:30:08.382Z,9.35
2019-04-26T22:32:38.106Z,8.85
2019-04-26T22:35:07.740Z,9.43
2019-04-26T22:37:37.502Z,8.98
2019-04-26T22:40:10.508Z,9.18
2019-04-26T22:42:42.164Z,9.20
2019-04-26T22:45:23.468Z,10.23
2019-04-26T22:48:00.739Z,9.55
2019-04-26T22:50:30.667Z,9.13
2019-04-26T22:53:00.316Z,9.05
2019-04-26T22:55:29.950Z,8.40
2019-04-26T22:57:59.592Z,5.72
2019-04-26T23:00:30.855Z,5.45
2019-04-26T23:03:03.538Z,5.17
2019-04-26T23:05:37.716Z,4.67
2019-04-26T23:08:03.462Z,4.28
2019-04-26T23:10:34.795Z,3.77
2019-04-26T23:13:07.881Z,3.58
2019-04-26T23:15:54.995Z,3.80
2019-04-26T23:18:29.299Z,3.87
2019-04-26T23:21:00.569Z,3.65
2019-04-26T23:23:30.221Z,3.27
2019-04-26T23:26:02.289Z,3.52
2019-04-26T23:28:34.005Z,3.70
2019-04-26T23:31:07.839Z,3.85
2019-04-26T23:33:34.068Z,4.22
2019-04-26T23:36:03.798Z,4.12
2019-04-26T23:38:37.349Z,5.80
2019-04-26T23:41:07.242Z,5.50
2019-04-26T23:43:36.133Z,7.42
2019-04-26T23:46:05.761Z,7.08
2019-04-26T23:48:35.614Z,8.28
2019-04-26T23:51:08.327Z,7.87
2019-04-26T23:53:36.598Z,10.53
2019-04-26T23:56:06.251Z,8.78
2019-04-26T23:58:35.919Z,10.08
